Time;durP1;ratioP1;P1;durP2;ratioP2;P2;SDS_P1;SDS_P2;PMS_P1;PMS_P2;Temp;Humidity;BMP_temperature;BMP_pressure;BME280_temperature;BME280_humidity;BME280_pressure;Samples;Min_cycle;Max_cycle;Signal;HPM_P1;HPM_P2
2023/05/18 00:00:01;;;;;;;7.70;4.03;;;;;;;3.08;100.00;97900.16;5052294;28;20045;-58
2023/05/18 00:02:30;;;;;;;7.30;4.03;;;;;;;3.03;100.00;97902.59;5044694;28;20433;-57
2023/05/18 00:05:00;;;;;;;7.72;4.00;;;;;;;3.00;100.00;97897.63;5058676;28;20044;-59
2023/05/18 00:07:28;;;;;;;7.47;3.88;;;;;;;2.92;100.00;97903.09;5060723;28;20045;-60
2023/05/18 00:09:55;;;;;;;12.15;4.15;;;;;;;2.81;100.00;97896.38;5057187;28;20047;-57
2023/05/18 00:12:22;;;;;;;8.93;4.50;;;;;;;2.71;100.00;97894.84;5058002;28;20528;-59
2023/05/18 00:14:48;;;;;;;8.85;4.45;;;;;;;2.70;100.00;97887.81;5043405;28;20041;-59
2023/05/18 00:17:15;;;;;;;9.75;4.53;;;;;;;2.76;100.00;97899.59;5051390;28;20627;-58
2023/05/18 00:19:45;;;;;;;8.68;4.75;;;;;;;2.62;100.00;97887.97;5052868;28;20698;-59
2023/05/18 00:22:16;;;;;;;7.40;4.35;;;;;;;2.57;100.00;97888.50;5044388;28;20642;-59
2023/05/18 00:24:47;;;;;;;11.15;4.15;;;;;;;2.45;100.00;97881.97;5054702;28;20082;-58
2023/05/18 00:27:13;;;;;;;7.80;4.32;;;;;;;2.57;100.00;97879.66;5060595;28;20074;-58
2023/05/18 00:29:40;;;;;;;7.57;4.20;;;;;;;2.66;100.00;97875.88;5047955;28;20041;-59
2023/05/18 00:32:06;;;;;;;9.55;4.22;;;;;;;2.77;100.00;97881.72;5057458;28;20052;-59
2023/05/18 00:34:35;;;;;;;8.88;4.68;;;;;;;2.79;100.00;97880.53;5049608;28;20041;-59
2023/05/18 00:37:02;;;;;;;10.70;4.82;;;;;;;2.76;100.00;97872.88;5046646;28;20111;-58
2023/05/18 00:39:28;;;;;;;7.55;3.97;;;;;;;2.80;100.00;97873.34;5064117;28;20083;-58
2023/05/18 00:41:55;;;;;;;9.48;4.20;;;;;;;2.70;100.00;97871.78;5051490;28;20045;-59
2023/05/18 00:44:23;;;;;;;7.15;3.50;;;;;;;2.92;100.00;97873.66;5051213;28;20730;-59
2023/05/18 00:46:49;;;;;;;8.73;4.00;;;;;;;2.64;100.00;97875.22;5058470;28;20045;-58
2023/05/18 00:49:16;;;;;;;9.57;4.25;;;;;;;2.59;100.00;97872.28;5050405;28;20041;-59
2023/05/18 00:51:44;;;;;;;9.55;3.67;;;;;;;2.73;100.00;97863.38;5049793;28;20044;-59
2023/05/18 00:54:10;;;;;;;7.20;3.75;;;;;;;2.77;100.00;97865.69;5049733;28;20043;-59
2023/05/18 00:56:40;;;;;;;10.55;4.38;;;;;;;2.38;100.00;97857.84;5048516;28;20072;-59
2023/05/18 00:59:11;;;;;;;8.13;4.50;;;;;;;2.44;100.00;97859.75;5048810;28;20103;-59
2023/05/18 01:01:42;;;;;;;8.88;3.83;;;;;;;2.64;100.00;97861.00;5045542;28;20071;-59
2023/05/18 01:04:12;;;;;;;7.35;3.95;;;;;;;2.64;100.00;97856.50;5047195;28;20126;-58
2023/05/18 01:06:41;;;;;;;9.60;4.30;;;;;;;2.43;100.00;97858.09;5054959;28;20159;-59
2023/05/18 01:09:10;;;;;;;12.15;4.63;;;;;;;2.48;100.00;97860.22;5056271;28;20126;-59
2023/05/18 01:12:02;;;;;;;13.15;5.97;;;;;;;2.42;100.00;97861.81;5046583;28;20044;-59
2023/05/18 01:14:58;;;;;;;10.20;5.32;;;;;;;2.26;100.00;97864.69;5045810;28;20608;-56
2023/05/18 01:17:33;;;;;;;12.07;6.18;;;;;;;2.23;100.00;97859.69;5051290;28;20192;-59
2023/05/18 01:20:23;;;;;;;11.90;6.38;;;;;;;2.40;100.00;97863.00;5046740;28;20557;-59
2023/05/18 01:23:28;;;;;;;9.38;5.57;;;;;;;2.37;100.00;97861.53;5051791;28;20042;-57
2023/05/18 01:25:55;;;;;;;10.23;5.10;;;;;;;2.38;100.00;97868.53;5038025;28;20048;-58
2023/05/18 01:28:26;;;;;;;10.95;4.95;;;;;;;2.55;100.00;97865.66;5051551;28;20068;-58
2023/05/18 01:30:55;;;;;;;10.18;4.75;;;;;;;2.41;100.00;97867.34;5047096;28;20076;-57
2023/05/18 01:33:23;;;;;;;8.45;4.60;;;;;;;2.41;100.00;97861.97;5053717;28;20617;-59
2023/05/18 01:35:50;;;;;;;9.50;4.78;;;;;;;2.53;100.00;97870.34;5047212;28;20083;-58
2023/05/18 01:38:21;;;;;;;8.55;5.10;;;;;;;2.44;100.00;97872.31;5046286;28;20152;-59
2023/05/18 01:41:13;;;;;;;8.45;4.43;;;;;;;2.47;100.00;97869.28;5048327;28;20601;-58
2023/05/18 01:43:51;;;;;;;10.25;4.60;;;;;;;2.40;100.00;97871.84;5045136;28;20037;-60
2023/05/18 01:46:53;;;;;;;9.02;4.55;;;;;;;2.42;100.00;97871.66;5058657;28;20116;-57
2023/05/18 01:49:29;;;;;;;11.00;4.68;;;;;;;2.24;100.00;97862.19;5029733;28;20049;-57
2023/05/18 01:52:00;;;;;;;8.10;4.22;;;;;;;2.27;100.00;97864.50;5056651;28;20085;-59
2023/05/18 01:54:31;;;;;;;7.55;4.65;;;;;;;2.31;100.00;97864.94;5046667;28;20415;-59
2023/05/18 01:56:58;;;;;;;8.38;4.22;;;;;;;2.35;100.00;97863.56;5050509;28;20033;-59
2023/05/18 01:59:25;;;;;;;9.85;4.90;;;;;;;2.39;100.00;97867.50;5059684;28;20508;-58
2023/05/18 02:01:51;;;;;;;9.07;4.05;;;;;;;2.42;100.00;97861.81;5044625;28;20079;-59
2023/05/18 02:04:26;;;;;;;9.00;4.00;;;;;;;2.44;100.00;97867.78;5048786;28;20478;-58
2023/05/18 02:06:54;;;;;;;7.05;3.97;;;;;;;2.37;100.00;97861.53;5052437;28;20033;-60
2023/05/18 02:09:21;;;;;;;7.70;3.83;;;;;;;2.36;100.00;97857.19;5052354;28;20075;-59
2023/05/18 02:11:49;;;;;;;6.95;4.07;;;;;;;2.32;100.00;97856.75;5043423;28;20051;-59
2023/05/18 02:14:15;;;;;;;8.50;4.20;;;;;;;2.28;100.00;97857.31;5059583;28;20039;-59
2023/05/18 02:16:45;;;;;;;7.88;4.55;;;;;;;2.34;100.00;97851.22;5052228;28;20045;-59
2023/05/18 02:19:13;;;;;;;8.00;3.97;;;;;;;2.26;100.00;97854.00;5051345;28;20087;-57
2023/05/18 02:21:42;;;;;;;8.52;4.50;;;;;;;2.25;100.00;97857.69;5046463;28;20534;-59
2023/05/18 02:24:09;;;;;;;6.45;3.92;;;;;;;2.20;100.00;97856.41;5046715;28;20037;-59
2023/05/18 02:26:36;;;;;;;7.93;3.95;;;;;;;2.05;100.00;97852.91;5050020;28;20044;-59
2023/05/18 02:29:08;;;;;;;7.35;3.97;;;;;;;2.13;100.00;97850.13;5047540;28;20680;-60
2023/05/18 02:31:34;;;;;;;;;;;;;;;2.15;100.00;97853.47;5047253;28;20043;-58
2023/05/18 02:34:01;;;;;;;8.93;4.50;;;;;;;2.10;100.00;97855.84;5050370;28;19920;-59
2023/05/18 02:36:38;;;;;;;7.25;4.22;;;;;;;1.90;100.00;97859.09;5047573;28;20037;-59
2023/05/18 02:39:06;;;;;;;13.15;4.90;;;;;;;2.00;100.00;97848.13;5053378;28;20044;-59
2023/05/18 02:41:34;;;;;;;8.48;5.00;;;;;;;1.95;100.00;97850.50;5042600;28;20689;-59
2023/05/18 02:44:02;;;;;;;8.23;4.32;;;;;;;1.91;100.00;97847.38;5046319;28;20130;-59
2023/05/18 02:46:28;;;;;;;11.00;3.88;;;;;;;1.79;100.00;97848.84;5050955;28;20127;-59
2023/05/18 02:48:55;;;;;;;8.48;4.55;;;;;;;1.83;100.00;97844.81;5050327;28;20155;-59
2023/05/18 02:51:22;;;;;;;9.02;4.35;;;;;;;1.73;100.00;97847.75;5047384;28;20084;-57
2023/05/18 02:53:50;;;;;;;9.60;4.55;;;;;;;1.72;100.00;97845.25;5053428;28;20072;-58
2023/05/18 02:56:17;;;;;;;8.50;5.03;;;;;;;1.73;100.00;97845.06;5045275;28;20700;-58
2023/05/18 02:58:56;;;;;;;7.97;4.95;;;;;;;1.71;100.00;97847.09;5034468;28;20049;-58
2023/05/18 03:01:36;;;;;;;9.40;4.18;;;;;;;1.59;100.00;97848.56;5045816;28;20102;-59
2023/05/18 03:04:03;;;;;;;10.60;4.90;;;;;;;1.49;100.00;97848.81;5047830;28;20063;-59
2023/05/18 03:06:29;;;;;;;12.27;4.75;;;;;;;1.47;100.00;97858.84;5042550;28;20578;-59
2023/05/18 03:08:57;;;;;;;10.07;4.78;;;;;;;1.47;100.00;97850.84;5050323;28;20044;-58
2023/05/18 03:11:31;;;;;;;7.68;4.22;;;;;;;1.54;100.00;97851.75;5046728;28;20103;-58
2023/05/18 03:13:58;;;;;;;8.85;4.40;;;;;;;1.50;100.00;97855.81;5047076;28;20044;-59
2023/05/18 03:16:27;;;;;;;11.90;4.68;;;;;;;1.59;100.00;97844.06;5056009;28;20049;-58
2023/05/18 03:18:54;;;;;;;11.80;4.50;;;;;;;1.52;100.00;97848.47;5051324;28;20044;-59
2023/05/18 03:21:21;;;;;;;12.82;4.72;;;;;;;1.41;100.00;97853.22;5038757;28;20112;-57
2023/05/18 03:23:48;;;;;;;7.97;4.68;;;;;;;1.42;100.00;97852.22;5048460;28;20717;-59
2023/05/18 03:26:15;;;;;;;9.88;5.38;;;;;;;1.35;100.00;97853.94;5041716;28;20095;-59
2023/05/18 03:28:42;;;;;;;11.18;4.63;;;;;;;1.28;100.00;97851.19;5050878;28;20055;-59
2023/05/18 03:31:08;;;;;;;12.65;4.85;;;;;;;1.24;100.00;97847.22;5045899;28;20080;-59
2023/05/18 03:33:35;;;;;;;17.65;5.45;;;;;;;1.28;100.00;97855.66;5050114;28;20040;-58
2023/05/18 03:36:03;;;;;;;13.90;5.50;;;;;;;1.34;100.00;97849.63;5035489;28;20106;-59
2023/05/18 03:38:30;;;;;;;11.60;6.00;;;;;;;1.42;100.00;97846.88;5046022;28;20098;-59
2023/05/18 03:41:02;;;;;;;18.38;5.93;;;;;;;1.22;100.00;97854.53;5050457;28;20044;-59
2023/05/18 03:43:31;;;;;;;8.07;4.65;;;;;;;1.18;100.00;97853.25;5041305;28;20032;-59
2023/05/18 03:45:59;;;;;;;9.23;5.40;;;;;;;1.21;100.00;97857.41;5040230;28;20127;-59
2023/05/18 03:48:26;;;;;;;9.55;5.93;;;;;;;1.25;100.00;97856.06;5037693;28;20049;-59
2023/05/18 03:50:53;;;;;;;11.27;5.72;;;;;;;1.09;100.00;97855.16;5054232;28;20052;-58
2023/05/18 03:53:20;;;;;;;10.15;5.75;;;;;;;1.16;100.00;97856.13;5047176;28;20056;-60
2023/05/18 03:55:50;;;;;;;10.68;5.65;;;;;;;1.20;100.00;97866.41;5048269;28;20045;-59
2023/05/18 03:58:19;;;;;;;13.77;5.95;;;;;;;1.25;100.00;97854.19;5042864;28;20057;-58
2023/05/18 04:00:48;;;;;;;10.48;5.75;;;;;;;1.19;100.00;97862.09;5047368;28;20051;-59
2023/05/18 04:03:15;;;;;;;11.90;5.32;;;;;;;1.26;100.00;97855.84;5047480;28;20071;-60
2023/05/18 04:05:42;;;;;;;14.75;5.07;;;;;;;1.29;100.00;97860.84;5045222;28;20722;-59
2023/05/18 04:08:13;;;;;;;10.50;5.68;;;;;;;1.28;100.00;97861.84;5050244;28;20049;-59
2023/05/18 04:10:43;;;;;;;8.68;5.13;;;;;;;1.34;100.00;97867.47;5051799;28;20284;-60
2023/05/18 04:13:11;;;;;;;11.27;5.80;;;;;;;1.34;100.00;97868.31;5047880;28;20459;-59
2023/05/18 04:15:37;;;;;;;11.98;5.97;;;;;;;1.28;100.00;97874.34;5042431;28;20526;-59
2023/05/18 04:18:04;;;;;;;11.05;5.88;;;;;;;1.26;100.00;97871.03;5046354;28;20036;-59
2023/05/18 04:20:31;;;;;;;11.57;6.25;;;;;;;1.31;100.00;97871.31;5037724;28;20385;-59
2023/05/18 04:22:59;;;;;;;14.35;7.57;;;;;;;1.40;100.00;97878.25;5046438;28;20683;-58
2023/05/18 04:25:26;;;;;;;12.88;7.60;;;;;;;1.38;100.00;97885.63;5044936;28;20047;-58
2023/05/18 04:27:54;;;;;;;14.93;7.30;;;;;;;1.50;100.00;97879.81;5047471;28;20037;-58
2023/05/18 04:30:28;;;;;;;12.13;6.60;;;;;;;1.60;100.00;97883.09;5040216;28;20560;-59
2023/05/18 04:32:57;;;;;;;13.57;8.45;;;;;;;1.75;100.00;97882.25;5039801;28;20056;-59
2023/05/18 04:35:24;;;;;;;16.75;7.68;;;;;;;1.78;100.00;97887.25;5038685;28;20094;-58
2023/05/18 04:37:51;;;;;;;12.07;6.40;;;;;;;1.88;100.00;97887.78;5043119;28;20044;-59
2023/05/18 04:40:18;;;;;;;12.15;7.22;;;;;;;2.07;100.00;97885.63;5046335;28;20052;-59
2023/05/18 04:42:47;;;;;;;12.10;6.80;;;;;;;2.21;100.00;97889.28;5043843;28;20426;-58
2023/05/18 04:45:24;;;;;;;11.38;6.70;;;;;;;2.23;100.00;97892.59;5057454;28;20048;-59
2023/05/18 04:47:53;;;;;;;12.13;5.97;;;;;;;2.33;100.00;97893.13;5043686;28;20051;-59
2023/05/18 04:50:24;;;;;;;12.38;6.05;;;;;;;2.45;100.00;97896.19;5045239;28;20045;-58
2023/05/18 04:52:52;;;;;;;15.32;6.32;;;;;;;2.56;100.00;97894.03;5035491;28;20103;-59
2023/05/18 04:55:26;;;;;;;12.30;6.47;;;;;;;2.64;100.00;97893.94;5049846;28;20036;-60
2023/05/18 04:57:56;;;;;;;12.63;6.32;;;;;;;2.95;100.00;97894.69;5051109;28;20048;-59
2023/05/18 05:00:24;;;;;;;11.82;6.63;;;;;;;3.13;100.00;97896.91;5050425;28;20051;-60
2023/05/18 05:02:52;;;;;;;10.32;6.55;;;;;;;3.27;100.00;97895.19;5049009;28;20061;-60
2023/05/18 05:05:19;;;;;;;9.48;5.63;;;;;;;3.28;100.00;97896.84;5046802;28;20033;-60
2023/05/18 05:07:47;;;;;;;10.35;5.78;;;;;;;3.29;100.00;97897.69;5048998;28;20044;-59
2023/05/18 05:10:14;;;;;;;10.52;5.60;;;;;;;3.36;100.00;97901.25;5047402;28;20044;-60
2023/05/18 05:12:41;;;;;;;11.55;6.20;;;;;;;3.42;100.00;97900.47;5056292;28;20051;-60
2023/05/18 05:15:08;;;;;;;10.88;5.82;;;;;;;3.55;100.00;97898.94;5052062;28;20037;-60
2023/05/18 05:17:36;;;;;;;14.23;6.43;;;;;;;3.79;100.00;97903.03;5047964;28;20124;-61
2023/05/18 05:20:07;;;;;;;10.88;6.32;;;;;;;3.84;100.00;97897.91;5032625;28;20606;-60
2023/05/18 05:22:33;;;;;;;13.38;6.55;;;;;;;4.14;100.00;97904.91;5049632;28;20041;-60
2023/05/18 05:25:02;;;;;;;11.38;5.95;;;;;;;4.31;100.00;97899.22;5048640;28;20052;-60
2023/05/18 05:27:32;;;;;;;10.85;4.88;;;;;;;4.40;100.00;97892.66;5043465;28;20478;-61
2023/05/18 05:29:58;;;;;;;10.10;5.40;;;;;;;4.50;100.00;97890.44;5044054;28;20667;-60
2023/05/18 05:32:25;;;;;;;10.20;5.40;;;;;;;4.72;100.00;97895.66;5051383;28;20075;-62
2023/05/18 05:34:52;;;;;;;10.55;5.50;;;;;;;4.87;100.00;97900.06;5046865;28;20097;-60
2023/05/18 05:37:20;;;;;;;15.70;5.70;;;;;;;5.03;100.00;97891.66;5051290;28;20048;-60
2023/05/18 05:39:47;;;;;;;11.55;4.80;;;;;;;5.18;100.00;97891.47;5059040;28;20068;-60
2023/05/18 05:42:16;;;;;;;7.47;4.13;;;;;;;5.36;100.00;97900.78;5054478;28;20036;-60
2023/05/18 05:44:42;;;;;;;10.73;4.18;;;;;;;5.52;100.00;97891.50;5049574;28;20036;-60
2023/05/18 05:47:09;;;;;;;8.23;4.15;;;;;;;5.66;99.95;97894.19;5059807;28;20720;-60
2023/05/18 05:49:35;;;;;;;9.93;4.03;;;;;;;5.81;98.16;97892.13;5047214;28;20041;-61
2023/05/18 05:52:03;;;;;;;9.82;3.60;;;;;;;6.03;96.14;97885.66;5047542;28;20465;-61
2023/05/18 05:54:30;;;;;;;11.88;3.78;;;;;;;6.16;95.70;97890.22;5043548;28;20063;-59
2023/05/18 05:56:56;;;;;;;6.75;3.90;;;;;;;6.30;95.81;97883.75;5054453;28;20115;-59
2023/05/18 05:59:23;;;;;;;9.23;3.65;;;;;;;6.37;92.96;97897.19;5043400;28;20048;-61
2023/05/18 06:01:50;;;;;;;9.98;3.58;;;;;;;6.45;92.00;97893.47;5046976;28;20049;-60
2023/05/18 06:04:17;;;;;;;7.25;3.22;;;;;;;6.50;90.86;97891.75;5052513;28;20032;-60
2023/05/18 06:06:46;;;;;;;12.32;3.55;;;;;;;6.57;90.78;97888.25;5053160;28;20037;-61
2023/05/18 06:09:13;;;;;;;9.32;3.13;;;;;;;6.58;89.34;97898.78;5055193;28;20042;-60
2023/05/18 06:11:40;;;;;;;9.20;3.72;;;;;;;6.64;88.80;97897.13;5047864;28;20071;-61
2023/05/18 06:14:07;;;;;;;5.97;2.90;;;;;;;6.70;88.77;97895.41;5051413;28;20404;-60
2023/05/18 06:16:34;;;;;;;7.05;3.35;;;;;;;6.78;88.63;97889.78;5056402;28;20041;-60
2023/05/18 06:19:01;;;;;;;9.10;3.67;;;;;;;6.85;88.61;97900.53;5051463;28;20036;-59
2023/05/18 06:21:28;;;;;;;9.40;3.50;;;;;;;6.93;87.32;97900.28;5056754;28;20043;-60
2023/05/18 06:23:56;;;;;;;10.07;2.88;;;;;;;6.97;87.09;97895.31;5048387;28;20048;-60
2023/05/18 06:26:58;;;;;;;5.93;2.83;;;;;;;6.98;88.50;97900.47;5039261;28;20055;-60
2023/05/18 06:29:36;;;;;;;8.27;3.80;;;;;;;7.15;88.55;97892.69;5038140;28;20508;-60
2023/05/18 06:32:12;;;;;;;8.23;3.05;;;;;;;7.23;88.12;97896.19;5035899;28;20045;-61
2023/05/18 06:34:44;;;;;;;9.75;3.20;;;;;;;7.37;87.69;97895.03;5043008;28;20051;-60
2023/05/18 06:37:11;;;;;;;9.32;2.70;;;;;;;7.47;85.89;97899.94;5044672;28;20099;-60
2023/05/18 06:39:38;;;;;;;11.45;3.05;;;;;;;7.53;86.45;97895.56;5039869;28;20544;-60
2023/05/18 06:42:06;;;;;;;7.93;3.25;;;;;;;7.67;84.67;97894.41;5038011;28;20672;-59
2023/05/18 06:44:34;;;;;;;7.70;3.72;;;;;;;7.74;85.45;97897.03;5041216;28;20136;-61
2023/05/18 06:47:08;;;;;;;10.45;3.30;;;;;;;7.74;84.77;97894.34;5048311;28;20036;-59
2023/05/18 06:49:34;;;;;;;11.77;4.03;;;;;;;7.88;84.31;97900.44;5048663;28;20048;-60
2023/05/18 06:52:02;;;;;;;8.63;3.20;;;;;;;7.75;81.34;97896.00;5044356;28;20123;-61
2023/05/18 06:54:29;;;;;;;8.52;3.72;;;;;;;7.78;82.37;97895.53;5053265;28;20080;-60
2023/05/18 06:56:56;;;;;;;7.88;2.70;;;;;;;7.80;81.10;97898.03;5048306;28;20048;-61
2023/05/18 06:59:23;;;;;;;9.27;3.30;;;;;;;7.85;81.37;97900.88;5037854;28;20085;-59
2023/05/18 07:01:50;;;;;;;7.97;3.60;;;;;;;7.93;83.04;97902.47;5047446;28;20085;-60
2023/05/18 07:04:18;;;;;;;8.48;2.83;;;;;;;8.02;83.07;97905.72;5039512;28;20061;-61
2023/05/18 07:06:45;;;;;;;7.45;2.90;;;;;;;8.10;80.37;97893.81;5041048;28;20102;-61
2023/05/18 07:09:11;;;;;;;7.35;3.13;;;;;;;8.17;81.98;97891.88;5039694;28;20048;-61
2023/05/18 07:11:39;;;;;;;8.20;2.78;;;;;;;8.30;81.59;97899.00;5042070;28;20056;-61
2023/05/18 07:14:05;;;;;;;9.10;3.30;;;;;;;8.28;79.18;97899.22;5045954;28;20044;-60
2023/05/18 07:16:32;;;;;;;8.25;3.38;;;;;;;8.38;80.56;97904.09;5044708;28;20628;-61
2023/05/18 07:18:59;;;;;;;10.55;3.80;;;;;;;8.43;79.06;97904.25;5043333;28;20063;-60
2023/05/18 07:21:25;;;;;;;9.30;3.42;;;;;;;8.54;80.40;97904.56;5050301;28;20366;-60
2023/05/18 07:23:52;;;;;;;5.55;2.80;;;;;;;8.61;78.17;97910.72;5041642;28;20048;-60
2023/05/18 07:26:19;;;;;;;7.72;2.90;;;;;;;8.65;78.91;97908.38;5039876;28;20048;-61
2023/05/18 07:28:46;;;;;;;8.00;2.80;;;;;;;8.73;79.21;97912.69;5040233;28;20043;-60
2023/05/18 07:31:15;;;;;;;10.38;4.10;;;;;;;8.66;79.10;97901.97;5047767;28;20049;-60
2023/05/18 07:33:43;;;;;;;9.80;4.30;;;;;;;8.76;77.97;97913.03;5054079;28;20527;-60
2023/05/18 07:36:09;;;;;;;9.00;3.50;;;;;;;8.90;77.48;97900.19;5054575;28;20090;-60
2023/05/18 07:38:36;;;;;;;9.82;3.15;;;;;;;9.02;76.42;97899.41;5047169;28;20082;-60
2023/05/18 07:41:03;;;;;;;8.05;3.72;;;;;;;9.17;77.29;97910.63;5052557;28;20048;-60
2023/05/18 07:43:29;;;;;;;8.25;3.40;;;;;;;9.24;75.81;97902.44;5043561;28;20049;-60
2023/05/18 07:45:56;;;;;;;13.00;3.65;;;;;;;9.39;75.60;97898.50;5037916;28;20123;-60
2023/05/18 07:48:23;;;;;;;6.95;2.97;;;;;;;9.57;75.01;97901.09;5032870;28;20041;-60
2023/05/18 07:50:49;;;;;;;6.68;3.28;;;;;;;9.57;74.21;97900.28;5042352;28;20041;-62
2023/05/18 07:53:16;;;;;;;12.57;3.50;;;;;;;9.56;73.13;97893.22;5051530;28;20051;-61
2023/05/18 07:55:42;;;;;;;10.95;3.28;;;;;;;9.67;74.71;97892.44;5044902;28;20041;-60
2023/05/18 07:58:09;;;;;;;10.02;3.60;;;;;;;9.86;74.85;97889.63;5048426;28;20040;-60
2023/05/18 08:00:36;;;;;;;6.55;3.13;;;;;;;9.95;73.10;97884.69;5044772;28;20041;-61
2023/05/18 08:03:03;;;;;;;9.02;3.25;;;;;;;10.09;73.09;97890.66;5043986;28;20056;-61
2023/05/18 08:05:29;;;;;;;6.80;3.47;;;;;;;10.07;72.05;97892.78;5035735;28;20098;-61
2023/05/18 08:07:56;;;;;;;10.23;4.40;;;;;;;10.20;72.20;97900.66;5041914;28;20090;-60
2023/05/18 08:10:23;;;;;;;5.32;2.80;;;;;;;10.09;71.41;97887.97;5041127;28;20041;-60
2023/05/18 08:12:51;;;;;;;11.50;3.80;;;;;;;10.18;70.81;97891.16;5045105;28;20045;-59
2023/05/18 08:15:18;;;;;;;9.57;3.60;;;;;;;10.39;69.86;97884.28;5040516;28;20049;-60
2023/05/18 08:17:46;;;;;;;9.07;3.22;;;;;;;10.59;71.85;97886.66;5041955;28;20043;-60
2023/05/18 08:20:12;;;;;;;13.32;3.53;;;;;;;10.59;69.48;97880.41;5041224;28;20049;-60
2023/05/18 08:22:39;;;;;;;8.15;2.80;;;;;;;10.57;69.83;97882.53;5045512;28;20128;-61
2023/05/18 08:25:06;;;;;;;10.45;3.47;;;;;;;10.78;70.42;97883.75;5044444;28;20111;-61
2023/05/18 08:27:32;;;;;;;9.18;3.30;;;;;;;10.83;69.25;97885.75;5043613;28;21004;-60
2023/05/18 08:29:59;;;;;;;6.60;2.50;;;;;;;11.02;69.75;97883.69;5049456;28;20071;-60
2023/05/18 08:32:26;;;;;;;10.88;3.88;;;;;;;10.99;67.94;97881.44;5043188;28;20054;-61
2023/05/18 08:34:53;;;;;;;7.85;3.25;;;;;;;11.14;67.90;97875.50;5047981;28;20040;-61
2023/05/18 08:37:20;;;;;;;9.30;3.80;;;;;;;11.09;67.10;97878.13;5043640;28;20067;-59
2023/05/18 08:39:47;;;;;;;10.50;3.17;;;;;;;11.24;66.95;97872.94;5041861;28;20099;-60
2023/05/18 08:43:01;;;;;;;6.68;2.97;;;;;;;11.23;63.64;97865.88;5045917;28;20051;-60
2023/05/18 08:45:46;;;;;;;8.00;3.33;;;;;;;11.27;64.33;97867.06;5038423;28;20425;-60
2023/05/18 08:48:15;;;;;;;8.18;3.28;;;;;;;11.42;63.84;97868.38;5044475;28;20225;-60
2023/05/18 08:50:43;;;;;;;7.43;3.33;;;;;;;11.44;62.04;97860.81;5044741;28;20056;-60
2023/05/18 08:53:10;;;;;;;7.68;3.25;;;;;;;11.43;63.08;97848.34;5050664;28;20044;-60
2023/05/18 08:55:40;;;;;;;6.40;3.25;;;;;;;11.56;63.18;97856.16;5048757;28;20383;-60
2023/05/18 08:58:08;;;;;;;8.48;3.65;;;;;;;11.68;61.56;97861.47;5044883;28;20512;-60
2023/05/18 09:00:34;;;;;;;7.15;2.75;;;;;;;11.84;62.25;97862.53;5051853;28;20041;-60
2023/05/18 09:03:04;;;;;;;11.02;3.08;;;;;;;11.94;60.38;97859.16;5048852;28;20051;-60
2023/05/18 09:05:30;;;;;;;9.32;3.22;;;;;;;11.96;60.79;97851.59;5050394;28;20037;-60
2023/05/18 09:07:58;;;;;;;11.38;3.15;;;;;;;11.97;59.50;97858.66;5046467;28;20040;-59
2023/05/18 09:10:25;;;;;;;7.95;2.75;;;;;;;11.93;58.98;97845.84;5047692;28;20052;-60
2023/05/18 09:12:54;;;;;;;7.15;2.67;;;;;;;12.07;59.25;97846.34;5045455;28;20037;-60
2023/05/18 09:15:23;;;;;;;8.18;2.53;;;;;;;12.16;58.09;97846.75;5054107;28;20094;-61
2023/05/18 09:17:50;;;;;;;8.65;3.15;;;;;;;12.29;58.43;97845.53;5046227;28;20044;-61
2023/05/18 09:20:19;;;;;;;6.28;2.55;;;;;;;12.31;57.18;97849.66;5051602;28;20101;-61
2023/05/18 09:22:48;;;;;;;8.40;3.17;;;;;;;12.49;56.81;97850.41;5049530;28;20067;-60
2023/05/18 09:25:16;;;;;;;7.72;2.50;;;;;;;12.66;56.84;97854.97;5051305;28;20037;-61
2023/05/18 09:27:43;;;;;;;8.25;2.63;;;;;;;12.69;55.81;97846.31;5043491;28;20037;-61
2023/05/18 09:30:10;;;;;;;6.22;2.58;;;;;;;12.54;54.56;97846.94;5041811;28;20036;-61
2023/05/18 09:32:37;;;;;;;9.65;3.00;;;;;;;12.49;55.36;97850.41;5049025;28;20049;-60
2023/05/18 09:35:05;;;;;;;10.20;2.78;;;;;;;12.53;54.66;97848.81;5055510;28;20045;-61
2023/05/18 09:37:32;;;;;;;12.07;3.45;;;;;;;12.72;54.01;97854.75;5045607;28;20044;-60
2023/05/18 09:40:00;;;;;;;9.13;2.80;;;;;;;12.70;54.81;97856.09;5041603;28;20813;-60
2023/05/18 09:42:38;;;;;;;7.03;2.33;;;;;;;13.03;55.61;97853.44;5045657;28;20670;-61
2023/05/18 09:45:27;;;;;;;9.65;2.83;;;;;;;13.32;54.28;97855.91;5041522;28;20047;-60
2023/05/18 09:47:54;;;;;;;6.97;3.08;;;;;;;13.13;54.25;97859.81;5049897;28;20036;-60
2023/05/18 09:50:21;;;;;;;9.52;3.00;;;;;;;13.19;53.69;97862.59;5050188;28;20056;-60
2023/05/18 09:52:49;;;;;;;4.82;2.10;;;;;;;13.34;53.23;97865.44;5047895;28;21194;-60
2023/05/18 09:55:17;;;;;;;8.63;2.45;;;;;;;13.53;53.23;97841.44;5035365;28;20650;-61
2023/05/18 09:57:45;;;;;;;9.40;3.00;;;;;;;13.71;53.46;97841.31;5045678;28;20049;-61
2023/05/18 10:00:14;;;;;;;10.65;2.72;;;;;;;13.88;52.29;97839.25;5040094;28;20672;-62
2023/05/18 10:02:47;;;;;;;8.77;2.55;;;;;;;14.16;51.83;97839.94;5046498;28;20122;-60
2023/05/18 10:05:29;;;;;;;6.55;2.60;;;;;;;14.18;51.35;97832.34;5047254;28;20067;-61
2023/05/18 10:07:58;;;;;;;6.53;2.47;;;;;;;14.60;50.55;97834.44;5044771;28;20111;-61
2023/05/18 10:10:26;;;;;;;11.07;2.38;;;;;;;14.40;50.29;97833.25;5040218;28;20041;-62
2023/05/18 10:12:56;;;;;;;11.13;3.17;;;;;;;14.46;49.56;97831.38;5042592;28;20040;-61
2023/05/18 10:15:23;;;;;;;8.30;2.72;;;;;;;14.47;49.85;97824.84;5042456;28;20055;-61
2023/05/18 10:17:55;;;;;;;8.30;3.15;;;;;;;14.36;48.63;97818.53;5047445;28;20051;-61
2023/05/18 10:20:28;;;;;;;;;;;;;;;14.52;48.99;97827.59;5047774;28;20455;-64
2023/05/18 10:22:59;;;;;;;7.50;2.33;;;;;;;14.78;50.06;97819.53;5025896;28;19929;-61
2023/05/18 10:25:26;;;;;;;6.83;3.00;;;;;;;14.86;47.77;97818.19;5042156;28;20043;-62
2023/05/18 10:27:59;;;;;;;10.02;3.22;;;;;;;14.42;49.22;97815.56;5043390;28;20341;-60
2023/05/18 10:30:26;;;;;;;7.43;2.63;;;;;;;14.60;49.93;97818.91;5042977;28;20056;-60
2023/05/18 10:32:55;;;;;;;6.15;2.53;;;;;;;14.65;49.15;97816.19;5042269;28;20626;-60
2023/05/18 10:35:24;;;;;;;10.25;3.97;;;;;;;14.65;48.55;97821.66;5041718;28;20044;-60
2023/05/18 10:37:53;;;;;;;5.10;2.38;;;;;;;14.87;47.53;97820.66;5028473;28;21954;-60
2023/05/18 10:40:22;;;;;;;5.93;2.63;;;;;;;15.05;48.26;97818.50;5042239;28;20052;-60
2023/05/18 10:42:51;;;;;;;10.02;2.97;;;;;;;15.48;47.54;97815.50;5043607;28;20057;-60
2023/05/18 10:45:18;;;;;;;10.27;2.60;;;;;;;15.36;46.91;97817.72;5027443;28;20476;-60
2023/05/18 10:47:46;;;;;;;5.65;2.17;;;;;;;15.20;46.90;97821.25;5041562;28;20054;-60
2023/05/18 10:50:15;;;;;;;8.35;3.30;;;;;;;15.42;45.74;97822.91;5051556;28;20048;-59
2023/05/18 10:52:44;;;;;;;8.70;2.50;;;;;;;15.40;45.67;97819.63;5032705;28;20051;-53
2023/05/18 10:55:11;;;;;;;7.97;2.75;;;;;;;15.55;44.53;97810.59;5045115;28;20095;-57
2023/05/18 10:57:43;;;;;;;7.93;2.25;;;;;;;15.23;45.53;97805.41;5047855;28;20634;-61
2023/05/18 11:00:11;;;;;;;7.30;2.47;;;;;;;15.21;45.96;97811.97;5040785;28;20036;-59
2023/05/18 11:02:41;;;;;;;6.07;2.55;;;;;;;15.05;46.60;97808.41;5043516;28;20103;-61
2023/05/18 11:05:10;;;;;;;8.77;2.80;;;;;;;14.99;45.83;97814.09;5041322;28;20037;-60
2023/05/18 11:07:37;;;;;;;5.85;2.58;;;;;;;14.97;46.39;97799.94;5040455;28;20094;-60
2023/05/18 11:10:12;;;;;;;7.88;2.20;;;;;;;15.24;46.05;97810.59;5041607;28;20037;-60
2023/05/18 11:12:39;;;;;;;8.75;2.53;;;;;;;15.07;45.34;97808.13;5044879;28;20049;-60
2023/05/18 11:15:06;;;;;;;5.63;2.30;;;;;;;15.16;44.96;97806.53;5046086;28;20047;-60
2023/05/18 11:17:33;;;;;;;9.40;2.67;;;;;;;14.97;45.50;97805.38;5037986;28;20743;-61
2023/05/18 11:20:04;;;;;;;11.00;2.35;;;;;;;14.94;44.66;97802.13;5048573;28;20045;-60
2023/05/18 11:22:58;;;;;;;10.05;2.33;;;;;;;15.31;44.08;97794.81;5046629;28;20036;-58
2023/05/18 11:25:24;;;;;;;10.10;2.38;;;;;;;15.51;44.77;97795.06;5046593;28;20047;-58
2023/05/18 11:27:52;;;;;;;4.65;2.50;;;;;;;15.50;43.74;97794.25;5045679;28;20091;-61
2023/05/18 11:30:26;;;;;;;6.70;2.42;;;;;;;15.81;43.87;97788.72;5037498;28;20106;-61
2023/05/18 11:33:07;;;;;;;7.78;2.90;;;;;;;15.93;43.71;97793.09;5044859;28;20036;-60
2023/05/18 11:36:10;;;;;;;7.95;2.80;;;;;;;15.86;42.93;97791.44;5042676;28;20137;-60
2023/05/18 11:38:54;;;;;;;6.28;2.17;;;;;;;15.85;42.93;97792.53;5032229;28;20651;-59
2023/05/18 11:41:35;;;;;;;7.72;2.30;;;;;;;15.80;42.34;97781.63;5041204;28;20056;-57